.
WxDataArchive / Data Records for 2012-04-18
2012-04-17 April 2012 2012-04-19

Data Records for Wednesday, 18 April 2012

Time	Temp	Chill	HIndex	Humid	Dewpt	 Wind 	HiWind	WindDir	Rain 	Barom 
-----	----	-----	------	-----	-----	------	------	-------	-----	----- 
00:00	41.6	41.6	41.6	78	35.3	0	0	---	0.00	30.306 
00:05	41.3	41.3	41.3	78	35.0	0	0	---	0.00	30.306 
00:10	41.2	41.2	41.2	78	34.9	0	0	---	0.00	30.306 
00:15	41.1	41.1	41.1	79	35.1	0	0	---	0.00	30.308 
00:20	40.9	40.9	40.9	80	35.2	0	0	---	0.00	30.308 
00:25	40.8	40.8	40.8	80	35.1	0	0	---	0.00	30.308 
00:30	40.5	40.5	40.5	81	35.1	0	0	---	0.00	30.308 
00:35	40.3	40.3	40.3	81	34.9	0	0	---	0.00	30.308 
00:40	40.2	40.2	40.2	81	34.8	0	0	---	0.00	30.308 
00:45	40.1	40.1	40.1	81	34.7	0	0	---	0.00	30.307 
00:50	39.9	39.9	39.9	81	34.6	0	0	---	0.00	30.307 
00:55	39.6	39.6	39.6	81	34.3	0	0	---	0.00	30.307 
01:00	39.5	39.5	39.5	82	34.5	0	0	---	0.00	30.302 
01:05	39.5	39.5	39.5	83	34.8	0	0	---	0.00	30.302 
01:10	39.3	39.3	39.3	83	34.6	0	0	---	0.00	30.302 
01:15	39.2	39.2	39.2	83	34.5	0	0	---	0.00	30.298 
01:20	39.1	39.1	39.1	84	34.7	0	0	---	0.00	30.298 
01:25	38.9	38.9	38.9	84	34.5	0	0	---	0.00	30.298 
01:30	38.9	38.9	38.9	84	34.5	0	0	---	0.00	30.297 
01:35	38.8	38.8	38.8	84	34.4	0	0	---	0.00	30.297 
01:40	38.8	38.8	38.8	84	34.4	0	0	---	0.00	30.297 
01:45	38.6	38.6	38.6	85	34.5	0	0	---	0.00	30.296 
01:50	38.5	38.5	38.5	85	34.4	0	0	---	0.00	30.296 
01:55	38.3	38.3	38.3	85	34.2	0	0	---	0.00	30.296 
02:00	38.3	38.3	38.3	85	34.2	0	0	---	0.00	30.293 
02:05	38.2	38.2	38.2	85	34.1	0	0	---	0.00	30.293 
02:10	38.0	38.0	38.0	86	34.2	0	0	---	0.00	30.293 
02:15	37.9	37.9	37.9	86	34.1	0	0	---	0.00	30.292 
02:20	37.8	37.8	37.8	86	34.0	0	0	---	0.00	30.292 
02:25	37.8	37.8	37.8	86	34.0	0	0	---	0.00	30.292 
02:30	37.6	37.6	37.6	86	33.8	0	0	---	0.00	30.290 
02:35	37.6	37.6	37.6	86	33.8	0	0	---	0.00	30.290 
02:40	37.5	37.5	37.5	86	33.7	0	0	---	0.00	30.290 
02:45	37.3	37.3	37.3	86	33.5	0	0	---	0.00	30.289 
02:50	37.2	37.2	37.2	86	33.4	0	0	---	0.00	30.289 
02:55	37.2	37.2	37.2	87	33.7	0	0	---	0.00	30.289 
03:00	37.0	37.0	37.0	87	33.5	0	0	---	0.00	30.288 
03:05	37.0	37.0	37.0	87	33.5	0	0	---	0.00	30.288 
03:10	37.0	37.0	37.0	87	33.5	0	0	---	0.00	30.288 
03:15	37.0	37.0	37.0	87	33.5	0	0	---	0.00	30.279 
03:20	37.0	37.0	37.0	87	33.5	0	0	---	0.00	30.279 
03:25	37.0	37.0	37.0	87	33.5	0	0	---	0.00	30.279 
03:30	37.0	37.0	37.0	88	33.8	0	0	---	0.00	30.276 
03:35	37.2	37.2	37.2	88	34.0	0	0	---	0.00	30.276 
03:40	37.3	37.3	37.3	88	34.1	0	0	---	0.00	30.276 
03:45	37.3	37.3	37.3	88	34.1	0	0	---	0.00	30.274 
03:50	37.3	37.3	37.3	87	33.8	0	0	---	0.00	30.274 
03:55	37.2	37.2	37.2	87	33.7	0	0	---	0.00	30.274 
04:00	37.2	37.2	37.2	87	33.7	0	0	---	0.00	30.274 
04:05	37.0	37.0	37.0	87	33.5	0	0	---	0.00	30.274 
04:10	36.9	36.9	36.9	87	33.4	0	0	---	0.00	30.274 
04:15	36.9	36.9	36.9	87	33.4	0	0	---	0.00	30.278 
04:20	36.8	36.8	36.8	87	33.3	0	0	---	0.00	30.278 
04:25	36.6	36.6	36.6	87	33.1	0	0	---	0.00	30.278 
04:30	36.5	36.5	36.5	87	33.0	0	0	---	0.00	30.275 
04:35	36.5	36.5	36.5	87	33.0	0	0	---	0.00	30.275 
04:40	36.3	36.3	36.3	87	32.8	0	0	---	0.00	30.275 
04:45	36.2	36.2	36.2	87	32.7	0	0	---	0.00	30.267 
04:50	36.2	36.2	36.2	87	32.7	0	0	---	0.00	30.267 
04:55	36.0	36.0	36.0	88	32.8	0	0	---	0.00	30.267 
05:00	36.0	36.0	36.0	88	32.8	0	0	---	0.00	30.265 
05:05	35.9	35.9	35.9	88	32.7	0	0	---	0.00	30.265 
05:10	35.8	35.8	35.8	88	32.6	0	0	---	0.00	30.265 
05:15	35.6	35.6	35.6	88	32.4	0	0	---	0.00	30.265 
05:20	35.5	35.5	35.5	88	32.3	0	0	---	0.00	30.265 
05:25	35.5	35.5	35.5	88	32.3	0	0	---	0.00	30.265 
05:30	35.3	35.3	35.3	88	32.1	0	0	---	0.00	30.266 
05:35	35.3	35.3	35.3	88	32.1	0	0	---	0.00	30.266 
05:40	35.2	35.2	35.2	88	32.0	0	0	---	0.00	30.266 
05:45	35.2	35.2	35.2	88	32.0	0	0	---	0.00	30.266 
05:50	35.0	35.0	35.0	89	32.1	0	0	---	0.00	30.266 
05:55	35.0	35.0	35.0	89	32.1	0	0	---	0.00	30.266 
06:00	35.2	35.2	35.2	89	32.3	0	0	---	0.00	30.267 
06:05	35.2	35.2	35.2	89	32.3	0	0	---	0.00	30.267 
06:10	35.3	35.3	35.3	89	32.4	0	0	---	0.00	30.267 
06:15	35.3	35.3	35.3	89	32.4	0	0	---	0.00	30.266 
06:20	35.3	35.3	35.3	90	32.7	0	0	---	0.00	30.266 
06:25	35.3	35.3	35.3	90	32.7	0	0	---	0.00	30.266 
06:30	35.3	35.3	35.3	90	32.7	0	0	---	0.00	30.265 
06:35	35.3	35.3	35.3	90	32.7	0	0	---	0.00	30.265 
06:40	35.3	35.3	35.3	90	32.7	0	1	270	0.00	30.265 
06:45	35.9	35.9	35.9	91	33.5	0	0	---	0.00	30.261 
06:50	36.5	36.5	36.5	91	34.1	0	1	270	0.00	30.261 
06:55	36.8	36.8	36.8	90	34.1	0	1	270	0.00	30.261 
07:00	37.2	37.2	37.2	89	34.3	0	1	270	0.00	30.263 
07:05	37.3	37.3	37.3	88	34.1	0	1	270	0.00	30.263 
07:10	37.5	37.5	37.5	88	34.3	0	1	270	0.00	30.263 
07:15	37.6	37.6	37.6	87	34.1	0	0	---	0.00	30.265 
07:20	37.6	37.6	37.6	87	34.1	0	1	270	0.00	30.265 
07:25	37.8	37.8	37.8	86	34.0	0	2	270	0.00	30.265 
07:30	37.9	37.9	37.9	86	34.1	0	1	270	0.00	30.264 
07:35	38.0	38.0	38.0	86	34.2	0	1	270	0.00	30.264 
07:40	38.3	38.3	38.3	85	34.2	0	3	112	0.00	30.264 
07:45	38.6	38.6	38.6	85	34.5	0	2	112	0.00	30.260 
07:50	39.1	39.1	39.1	84	34.7	1	4	112	0.00	30.260 
07:55	39.5	39.5	39.5	84	35.1	1	2	90	0.00	30.260 
08:00	40.1	40.1	40.1	83	35.4	1	2	90	0.00	30.261 
08:05	40.6	40.6	40.6	82	35.5	0	2	90	0.00	30.261 
08:10	41.3	41.3	41.3	81	35.9	0	2	90	0.00	30.261 
08:15	41.9	41.9	41.9	79	35.9	1	4	90	0.00	30.265 
08:20	42.5	42.5	42.5	78	36.1	1	3	90	0.00	30.265 
08:25	42.9	42.9	42.9	78	36.5	1	3	90	0.00	30.265 
08:30	43.3	43.3	43.3	77	36.6	1	3	90	0.00	30.263 
08:35	43.8	43.8	43.8	76	36.7	1	3	90	0.00	30.263 
08:40	44.1	44.1	44.1	77	37.4	1	3	90	0.00	30.263 
08:45	44.2	44.2	44.2	76	37.1	1	3	90	0.00	30.257 
08:50	44.5	44.5	44.5	77	37.7	0	2	90	0.00	30.257 
08:55	44.9	44.9	44.9	75	37.5	1	3	90	0.00	30.257 
09:00	45.4	45.4	45.4	75	37.9	1	3	90	0.00	30.254 
09:05	45.4	45.4	45.4	75	37.9	2	3	90	0.00	30.254 
09:10	45.7	45.7	45.7	75	38.2	1	4	90	0.00	30.254 
09:15	46.0	46.0	46.0	73	37.8	2	3	90	0.00	30.257 
09:20	46.2	46.2	46.2	73	38.0	2	4	90	0.00	30.257 
09:25	46.7	46.7	46.7	73	38.5	1	4	90	0.00	30.257 
09:30	47.3	47.3	47.3	72	38.7	1	3	90	0.00	30.259 
09:35	47.9	47.9	47.9	69	38.2	1	4	90	0.00	30.259 
09:40	48.3	48.3	48.3	69	38.6	1	3	90	0.00	30.259 
09:45	48.9	48.9	48.9	67	38.4	1	4	90	0.00	30.254 
09:50	49.6	49.6	49.6	65	38.3	1	3	90	0.00	30.254 
09:55	50.1	50.1	50.1	65	38.8	1	3	112	0.00	30.254 
10:00	50.2	50.2	50.2	64	38.5	2	5	90	0.00	30.249 
10:05	50.5	50.5	50.5	64	38.8	2	6	90	0.00	30.249 
10:10	51.1	51.1	51.1	63	38.9	2	4	90	0.00	30.249 
10:15	51.4	51.4	51.4	63	39.2	2	4	90	0.00	30.246 
10:20	51.9	51.9	51.9	61	38.9	3	5	90	0.00	30.246 
10:25	52.2	52.2	52.2	60	38.7	3	6	90	0.00	30.246 
10:30	52.8	52.8	52.8	60	39.3	2	5	90	0.00	30.242 
10:35	53.2	53.2	53.2	57	38.4	3	6	90	0.00	30.242 
10:40	53.8	53.8	53.8	55	38.0	3	7	90	0.00	30.242 
10:45	54.4	54.4	54.4	54	38.1	2	3	90	0.00	30.241 
10:50	55.1	55.1	55.1	53	38.3	2	6	90	0.00	30.241 
10:55	55.4	55.4	55.4	51	37.6	2	6	90	0.00	30.241 
11:00	56.2	56.2	56.2	50	37.8	1	3	135	0.00	30.232 
11:05	56.5	56.5	56.5	49	37.6	3	7	112	0.00	30.232 
11:10	56.9	56.9	56.9	49	37.9	1	3	90	0.00	30.232 
11:15	57.3	57.3	57.3	48	37.8	2	9	90	0.00	30.230 
11:20	57.8	57.8	57.8	46	37.2	2	6	90	0.00	30.230 
11:25	58.0	58.0	58.0	45	36.8	2	6	135	0.00	30.230 
11:30	58.6	58.6	58.6	46	37.9	1	4	90	0.00	30.227 
11:35	59.2	59.2	59.2	44	37.3	1	4	112	0.00	30.227 
11:40	59.5	59.5	59.5	45	38.1	2	6	68	0.00	30.227 
11:45	59.6	59.6	59.6	43	37.1	2	5	90	0.00	30.225 
11:50	59.8	59.8	59.8	44	37.8	1	4	90	0.00	30.225 
11:55	59.9	59.9	59.9	43	37.3	2	8	90	0.00	30.225 
12:00	60.2	60.2	60.2	41	36.4	2	5	90	0.00	30.219 
12:05	60.2	60.2	60.2	41	36.4	2	5	90	0.00	30.219 
12:10	60.5	60.5	60.5	39	35.4	2	5	135	0.00	30.219 
12:15	60.7	60.7	60.7	40	36.2	1	6	68	0.00	30.215 
12:20	61.2	61.2	61.2	41	37.3	1	4	90	0.00	30.215 
12:25	61.5	61.5	61.5	39	36.3	2	6	90	0.00	30.215 
12:30	61.6	61.6	61.6	38	35.7	2	5	90	0.00	30.208 
12:35	62.0	62.0	62.0	45	40.4	1	3	112	0.00	30.208 
12:40	62.3	62.3	62.3	43	39.5	1	3	112	0.00	30.208 
12:45	62.7	62.7	62.7	40	38.0	1	4	90	0.00	30.194 
12:50	62.9	62.9	62.9	36	35.5	1	4	112	0.00	30.194 
12:55	62.7	62.7	62.7	38	36.7	1	3	225	0.00	30.194 
13:00	62.9	62.9	62.9	37	36.2	2	5	90	0.00	30.192 
13:05	62.6	62.6	62.6	38	36.6	3	5	90	0.00	30.192 
13:10	62.7	62.7	62.7	42	39.3	1	6	90	0.00	30.192 
13:15	63.1	63.1	63.1	38	37.1	0	2	90	0.00	30.183 
13:20	63.4	63.4	63.4	38	37.3	1	4	90	0.00	30.183 
13:25	63.9	63.9	63.9	40	39.1	1	4	248	0.00	30.183 
13:30	63.9	63.9	63.9	35	35.7	2	5	90	0.00	30.177 
13:35	63.7	63.7	63.7	37	36.9	1	3	248	0.00	30.177 
13:40	63.7	63.7	63.7	33	34.1	1	3	248	0.00	30.177 
13:45	64.0	64.0	64.0	34	35.1	1	4	90	0.00	30.172 
13:50	64.2	64.2	64.2	34	35.2	0	2	112	0.00	30.172 
13:55	64.7	64.7	64.7	39	39.2	0	3	112	0.00	30.172 
14:00	64.8	64.8	64.8	34	35.8	1	3	112	0.00	30.160 
14:05	64.8	64.8	64.8	32	34.2	1	5	112	0.00	30.160 
14:10	65.2	65.2	65.2	36	37.6	1	5	225	0.00	30.160 
14:15	64.8	64.8	64.8	34	35.8	1	5	292	0.00	30.150 
14:20	64.8	64.8	64.8	35	36.5	1	4	90	0.00	30.150 
14:25	64.8	64.8	64.8	36	37.2	1	4	90	0.00	30.150 
14:30	65.0	65.0	65.0	34	35.9	1	3	90	0.00	30.136 
14:35	65.3	65.3	65.3	35	36.9	1	4	90	0.00	30.136 
14:40	65.3	65.3	65.3	35	36.9	2	7	112	0.00	30.136 
14:45	65.6	65.6	65.6	34	36.5	1	5	112	0.00	30.131 
14:50	65.5	65.5	65.5	31	34.1	2	5	90	0.00	30.131 
14:55	65.5	65.5	65.5	36	37.8	1	3	90	0.00	30.131 
15:00	66.0	66.0	66.0	35	37.6	1	6	248	0.00	30.119 
15:05	66.3	66.3	66.3	36	38.5	1	3	112	0.00	30.119 
15:10	66.4	66.4	66.4	34	37.2	1	3	270	0.00	30.119 
15:15	66.6	66.6	66.6	35	38.1	1	2	270	0.00	30.109 
15:20	67.1	67.1	67.1	35	38.5	0	2	270	0.00	30.109 
15:25	67.3	67.3	67.3	34	38.0	1	2	270	0.00	30.109 
15:30	67.4	67.4	67.4	32	36.5	1	3	270	0.00	30.098 
15:35	67.3	67.3	67.3	30	34.8	0	2	45	0.00	30.098 
15:40	67.3	67.3	67.3	30	34.8	0	3	292	0.00	30.098 
15:45	67.8	67.8	67.8	33	37.6	0	2	270	0.00	30.091 
15:50	68.1	68.1	68.1	33	37.9	1	3	315	0.00	30.091 
15:55	68.1	68.1	68.1	32	37.1	1	4	248	0.00	30.091 
16:00	67.8	67.8	67.8	32	36.9	2	4	112	0.00	30.081 
16:05	67.8	67.8	67.8	31	36.1	1	4	112	0.00	30.081 
16:10	67.6	67.6	67.6	31	35.9	1	4	112	0.00	30.081 
16:15	67.9	67.9	67.9	31	36.1	0	1	112	0.00	30.076 
16:20	68.3	68.3	68.3	34	38.8	0	2	112	0.00	30.076 
16:25	68.3	68.3	68.3	31	36.5	1	3	270	0.00	30.076 
16:30	67.9	67.9	67.9	28	33.6	1	3	90	0.00	30.068 
16:35	67.9	67.9	67.9	28	33.6	0	3	248	0.00	30.068 
16:40	67.9	67.9	67.9	31	36.1	1	4	248	0.00	30.068 
16:45	68.1	68.1	68.1	32	37.1	1	4	68	0.00	30.064 
16:50	67.9	67.9	67.9	31	36.1	1	4	315	0.00	30.064 
16:55	67.9	67.9	67.9	31	36.1	1	3	112	0.00	30.064 
17:00	67.9	67.9	67.9	31	36.1	1	3	112	0.00	30.057 
17:05	68.1	68.1	68.1	30	35.5	1	2	112	0.00	30.057 
17:10	68.3	68.3	68.3	33	38.1	0	2	112	0.00	30.057 
17:15	68.4	68.4	68.4	31	36.6	1	3	112	0.00	30.052 
17:20	68.4	68.4	68.4	34	38.9	0	3	112	0.00	30.052 
17:25	68.4	68.4	68.4	30	35.7	1	4	90	0.00	30.052 
17:30	68.3	68.3	68.3	29	34.8	1	3	90	0.00	30.038 
17:35	67.9	67.9	67.9	29	34.5	2	6	90	0.00	30.038 
17:40	67.8	67.8	67.8	30	35.2	1	4	90	0.00	30.038 
17:45	67.8	67.8	67.8	30	35.2	1	3	112	0.00	30.037 
17:50	67.8	67.8	67.8	30	35.2	1	3	112	0.00	30.037 
17:55	67.8	67.8	67.8	31	36.1	0	2	112	0.00	30.037 
18:00	67.9	67.9	67.9	31	36.1	0	2	112	0.00	30.036 
18:05	67.8	67.8	67.8	30	35.2	0	2	112	0.00	30.036 
18:10	67.6	67.6	67.6	31	35.9	1	3	112	0.00	30.036 
18:15	67.4	67.4	67.4	30	34.9	0	2	112	0.00	30.034 
18:20	67.3	67.3	67.3	31	35.6	0	2	292	0.00	30.034 
18:25	67.1	67.1	67.1	30	34.6	1	3	68	0.00	30.034 
18:30	66.8	66.8	66.8	30	34.4	1	4	248	0.00	30.035 
18:35	66.8	66.8	66.8	31	35.2	0	1	90	0.00	30.035 
18:40	66.6	66.6	66.6	30	34.2	1	3	270	0.00	30.035 
18:45	66.4	66.4	66.4	31	34.8	1	4	270	0.00	30.033 
18:50	66.3	66.3	66.3	32	35.6	0	3	45	0.00	30.033 
18:55	66.3	66.3	66.3	31	34.8	0	3	248	0.00	30.033 
19:00	66.0	66.0	66.0	32	35.3	0	3	112	0.00	30.033 
19:05	65.6	65.6	65.6	33	35.7	0	2	112	0.00	30.033 
19:10	65.3	65.3	65.3	33	35.5	0	1	112	0.00	30.033 
19:15	65.3	65.3	65.3	34	36.2	0	1	112	0.00	30.029 
19:20	65.5	65.5	65.5	32	34.9	0	2	112	0.00	30.029 
19:25	65.5	65.5	65.5	32	34.9	0	1	112	0.00	30.029 
19:30	65.3	65.3	65.3	32	34.7	0	2	202	0.00	30.029 
19:35	65.2	65.2	65.2	33	35.4	0	1	202	0.00	30.029 
19:40	64.8	64.8	64.8	33	35.0	0	1	202	0.00	30.029 
19:45	64.7	64.7	64.7	34	35.7	0	0	---	0.00	30.024 
19:50	64.3	64.3	64.3	33	34.6	0	0	---	0.00	30.024 
19:55	64.2	64.2	64.2	34	35.2	0	1	202	0.00	30.024 
20:00	63.9	63.9	63.9	34	35.0	0	0	---	0.00	30.024 
20:05	63.5	63.5	63.5	35	35.4	0	0	---	0.00	30.024 
20:10	63.2	63.2	63.2	35	35.1	0	1	202	0.00	30.024 
20:15	62.9	62.9	62.9	35	34.8	0	0	---	0.00	30.016 
20:20	62.6	62.6	62.6	36	35.3	0	0	---	0.00	30.016 
20:25	62.1	62.1	62.1	36	34.8	0	0	---	0.00	30.016 
20:30	61.6	61.6	61.6	38	35.7	0	0	---	0.00	30.021 
20:35	61.3	61.3	61.3	37	34.8	0	1	202	0.00	30.021 
20:40	61.2	61.2	61.2	38	35.4	0	1	202	0.00	30.021 
20:45	60.9	60.9	60.9	38	35.1	0	0	---	0.00	30.018 
20:50	60.5	60.5	60.5	39	35.4	0	0	---	0.00	30.018 
20:55	60.2	60.2	60.2	39	35.2	0	0	---	0.00	30.018 
21:00	59.8	59.8	59.8	39	34.8	0	0	---	0.00	30.023 
21:05	59.3	59.3	59.3	40	35.0	0	0	---	0.00	30.023 
21:10	59.0	59.0	59.0	42	35.9	0	0	---	0.00	30.023 
21:15	58.6	58.6	58.6	42	35.6	0	0	---	0.00	30.024 
21:20	58.1	58.1	58.1	43	35.7	0	0	---	0.00	30.024 
21:25	57.6	57.6	57.6	44	35.8	0	0	---	0.00	30.024 
21:30	57.3	57.3	57.3	45	36.1	0	0	---	0.00	30.021 
21:35	57.0	57.0	57.0	46	36.4	0	0	---	0.00	30.021 
21:40	56.7	56.7	56.7	47	36.7	0	0	---	0.00	30.021 
21:45	56.5	56.5	56.5	48	37.0	0	0	---	0.00	30.017 
21:50	56.2	56.2	56.2	48	36.8	0	0	---	0.00	30.017 
21:55	56.0	56.0	56.0	48	36.6	0	0	---	0.00	30.017 
22:00	55.9	55.9	55.9	49	37.0	0	0	---	0.00	30.018 
22:05	55.7	55.7	55.7	48	36.3	0	0	---	0.00	30.018 
22:10	55.7	55.7	55.7	48	36.3	0	0	---	0.00	30.018 
22:15	55.6	55.6	55.6	48	36.2	0	0	---	0.00	30.019 
22:20	55.6	55.6	55.6	49	36.7	0	0	---	0.00	30.019 
22:25	55.6	55.6	55.6	49	36.7	0	0	---	0.00	30.019 
22:30	55.6	55.6	55.6	49	36.7	0	0	---	0.00	30.012 
22:35	55.6	55.6	55.6	49	36.7	0	0	---	0.00	30.012 
22:40	55.4	55.4	55.4	50	37.1	0	0	---	0.00	30.012 
22:45	55.3	55.3	55.3	50	37.0	0	0	---	0.00	30.013 
22:50	55.1	55.1	55.1	49	36.3	0	0	---	0.00	30.013 
22:55	55.1	55.1	55.1	50	36.8	0	0	---	0.00	30.013 
23:00	55.0	55.0	55.0	50	36.7	0	0	---	0.00	30.012 
23:05	54.8	54.8	54.8	51	37.0	0	0	---	0.00	30.012 
23:10	54.7	54.7	54.7	51	36.9	0	0	---	0.00	30.012 
23:15	54.5	54.5	54.5	51	36.7	0	0	---	0.00	30.009 
23:20	54.5	54.5	54.5	51	36.7	0	0	---	0.00	30.009 
23:25	54.5	54.5	54.5	51	36.7	0	1	202	0.00	30.009 
23:30	54.5	54.5	54.5	51	36.7	0	0	---	0.00	30.008 
23:35	54.7	54.7	54.7	52	37.4	0	2	202	0.00	30.008 
23:40	54.7	54.7	54.7	51	36.9	0	1	202	0.00	30.008 
23:45	54.8	54.8	54.8	51	37.0	0	1	202	0.00	30.006 
23:50	55.0	55.0	55.0	51	37.2	0	2	248	0.00	30.006 
23:55	55.0	55.0	55.0	52	37.7	0	0	---	0.00	30.006 

CoCoRaHS
IN-AL-39
A2 Web Hosting
Creative Commons License
GoDaddy
search engine by freefind advanced

loaded 2018-11-20 15:41:08 • last modified 2010-11-18 10:43:29
Privacy PolicyDisclaimer
• wx.awcolley.com is powered by PmWiki v.2002016 •
• all content (unless otherwise noted) © 2018 A W Colley